createdAt,value
2019-05-20T00:02:36.323Z,80.09
2019-05-20T00:05:41.154Z,80.27
2019-05-20T00:08:45.570Z,79.79
2019-05-20T00:11:50.073Z,80.63
2019-05-20T00:14:54.521Z,81.05
2019-05-20T00:17:59.301Z,80.59
2019-05-20T00:21:03.829Z,80.58
2019-05-20T00:24:08.558Z,81.00
2019-05-20T00:27:12.997Z,79.51
2019-05-20T00:30:18.121Z,80.65
2019-05-20T00:33:22.856Z,80.27
2019-05-20T00:36:27.585Z,79.64
2019-05-20T00:39:32.314Z,80.37
2019-05-20T00:42:37.047Z,80.07
2019-05-20T00:45:42.080Z,79.66
2019-05-20T00:48:46.532Z,79.26
2019-05-20T00:51:51.236Z,79.53
2019-05-20T00:54:56.026Z,78.86
2019-05-20T00:58:01.005Z,78.21
2019-05-20T01:01:05.739Z,78.40
2019-05-20T01:04:10.471Z,79.00
2019-05-20T01:07:14.951Z,79.12
2019-05-20T01:10:19.465Z,79.84
2019-05-20T01:13:23.915Z,79.90
2019-05-20T01:16:28.674Z,80.17
2019-05-20T01:19:33.403Z,79.59
2019-05-20T01:22:38.136Z,79.75
2019-05-20T01:25:42.579Z,80.24
2019-05-20T01:28:47.406Z,79.48
2019-05-20T01:31:52.135Z,79.91
2019-05-20T01:34:56.585Z,80.29
2019-05-20T01:38:01.333Z,80.02
2019-05-20T01:41:05.811Z,81.16
2019-05-20T01:44:10.260Z,80.43
2019-05-20T01:47:14.707Z,80.10
2019-05-20T01:50:19.482Z,80.49
2019-05-20T01:53:24.213Z,80.44
2019-05-20T01:56:28.661Z,80.27
2019-05-20T01:59:33.112Z,80.52
2019-05-20T02:02:37.553Z,80.82
2019-05-20T02:05:42.001Z,80.99
2019-05-20T02:08:46.455Z,81.17
2019-05-20T02:11:51.173Z,81.04
2019-05-20T02:14:57.263Z,80.14
2019-05-20T02:18:01.961Z,80.54
2019-05-20T02:21:06.411Z,80.61
2019-05-20T02:24:10.858Z,81.55
2019-05-20T02:27:15.536Z,82.06
2019-05-20T02:30:19.991Z,81.95
2019-05-20T02:33:24.435Z,81.74
2019-05-20T02:36:28.893Z,81.67
2019-05-20T02:39:33.320Z,81.94
2019-05-20T02:42:38.166Z,82.62
2019-05-20T02:45:42.607Z,82.09
2019-05-20T02:48:47.043Z,82.17
2019-05-20T02:51:51.492Z,81.91
2019-05-20T02:54:55.963Z,81.62
2019-05-20T02:58:00.385Z,81.54
2019-05-20T03:01:04.995Z,82.58
2019-05-20T03:04:11.989Z,82.13
2019-05-20T03:07:16.015Z,82.02
2019-05-20T03:10:20.533Z,82.25
2019-05-20T03:13:25.273Z,82.24
2019-05-20T03:16:29.741Z,83.28
2019-05-20T03:19:34.425Z,83.50
2019-05-20T03:22:38.873Z,83.90
2019-05-20T03:25:43.753Z,84.27
2019-05-20T03:28:48.195Z,84.01
2019-05-20T03:31:52.938Z,83.86
2019-05-20T03:34:59.828Z,83.41
2019-05-20T03:38:03.833Z,83.32
2019-05-20T03:41:08.564Z,83.17
2019-05-20T03:44:13.298Z,82.69
2019-05-20T03:47:17.741Z,83.12
2019-05-20T03:50:22.453Z,82.59
2019-05-20T03:53:26.894Z,82.38
2019-05-20T03:56:31.602Z,82.82
2019-05-20T03:59:36.057Z,82.90
2019-05-20T04:02:40.489Z,82.88
2019-05-20T04:05:46.847Z,82.89
2019-05-20T04:08:51.555Z,82.97
2019-05-20T04:11:55.996Z,83.12
2019-05-20T04:15:00.700Z,82.91
2019-05-20T04:18:05.157Z,82.55
2019-05-20T04:21:09.594Z,82.74
2019-05-20T04:24:14.154Z,82.66
2019-05-20T04:27:18.911Z,83.06
2019-05-20T04:30:23.635Z,82.81
2019-05-20T04:33:28.378Z,82.73
2019-05-20T04:36:33.104Z,82.72
2019-05-20T04:39:37.538Z,82.39
2019-05-20T04:42:41.984Z,82.47
2019-05-20T04:45:47.192Z,82.86
2019-05-20T04:48:51.641Z,82.90
2019-05-20T04:51:56.089Z,83.09
2019-05-20T04:55:00.537Z,82.84
2019-05-20T04:58:04.978Z,83.14
2019-05-20T05:01:09.410Z,82.56
2019-05-20T05:04:13.861Z,82.53
2019-05-20T05:07:18.316Z,82.00
2019-05-20T05:10:23.090Z,82.17
2019-05-20T05:13:28.025Z,81.92
2019-05-20T05:16:32.466Z,82.16
2019-05-20T05:19:36.923Z,81.88
2019-05-20T05:22:41.707Z,82.13
2019-05-20T05:25:46.845Z,82.61
2019-05-20T05:28:51.582Z,82.44
2019-05-20T05:31:56.308Z,81.06
2019-05-20T05:35:01.052Z,80.53
2019-05-20T05:38:05.693Z,80.61
2019-05-20T05:41:10.121Z,80.49
2019-05-20T05:44:14.830Z,81.09
2019-05-20T05:47:20.370Z,81.17
2019-05-20T05:50:24.817Z,81.40
2019-05-20T05:53:29.525Z,80.41
2019-05-20T05:56:34.264Z,80.20
2019-05-20T05:59:38.707Z,79.52
2019-05-20T06:02:43.477Z,79.38
2019-05-20T06:05:47.952Z,79.27
2019-05-20T06:08:52.411Z,78.33
2019-05-20T06:11:57.092Z,79.48
2019-05-20T06:15:01.855Z,79.28
2019-05-20T06:18:06.553Z,78.77
2019-05-20T06:21:11.291Z,78.25
2019-05-20T06:24:16.013Z,77.61
2019-05-20T06:27:20.743Z,78.59
2019-05-20T06:30:38.644Z,76.26
2019-05-20T06:33:43.416Z,75.70
2019-05-20T06:36:50.101Z,76.07
2019-05-20T06:39:54.583Z,76.42
2019-05-20T06:42:59.062Z,75.42
2019-05-20T06:46:03.499Z,75.31
2019-05-20T06:49:07.950Z,74.81
2019-05-20T06:52:12.392Z,75.42
2019-05-20T06:55:17.084Z,75.76
2019-05-20T06:58:21.541Z,75.73
2019-05-20T07:01:25.982Z,75.28
2019-05-20T07:04:30.436Z,74.15
2019-05-20T07:07:34.880Z,74.75
2019-05-20T07:10:39.677Z,74.68
2019-05-20T07:13:44.407Z,75.82
2019-05-20T07:16:49.274Z,75.21
2019-05-20T07:19:53.858Z,76.21
2019-05-20T07:22:58.324Z,75.11
2019-05-20T07:26:02.768Z,75.43
2019-05-20T07:29:07.228Z,75.08
2019-05-20T07:32:11.679Z,75.15
2019-05-20T07:35:29.767Z,75.17
2019-05-20T07:38:22.291Z,75.10
2019-05-20T07:41:26.985Z,74.20
2019-05-20T07:44:31.708Z,73.75
2019-05-20T07:47:36.886Z,74.87
2019-05-20T07:50:42.104Z,75.83
2019-05-20T07:53:46.851Z,75.32
2019-05-20T07:56:53.178Z,76.00
2019-05-20T07:59:58.497Z,76.50
2019-05-20T08:03:03.114Z,76.69
2019-05-20T08:06:07.812Z,76.07
2019-05-20T08:09:12.528Z,76.28
2019-05-20T08:12:16.965Z,75.63
2019-05-20T08:15:21.693Z,77.09
2019-05-20T08:18:26.128Z,77.87
2019-05-20T08:21:30.834Z,77.46
2019-05-20T08:24:35.289Z,77.78
2019-05-20T08:27:39.988Z,78.35
2019-05-20T08:30:44.451Z,78.99
2019-05-20T08:33:48.956Z,79.44
2019-05-20T08:36:53.432Z,78.82
2019-05-20T08:39:57.907Z,78.23
2019-05-20T08:43:02.627Z,78.56
2019-05-20T08:46:07.349Z,78.52
2019-05-20T08:49:11.985Z,78.02
2019-05-20T08:52:16.523Z,79.19
2019-05-20T08:55:21.245Z,78.49
2019-05-20T08:58:25.682Z,78.77
2019-05-20T09:01:30.393Z,78.47
2019-05-20T09:04:34.843Z,78.28
2019-05-20T09:07:39.298Z,79.05
2019-05-20T09:10:43.762Z,79.50
2019-05-20T09:13:48.202Z,78.70
2019-05-20T09:16:53.232Z,78.36
2019-05-20T09:19:57.958Z,78.46
2019-05-20T09:23:03.118Z,78.64
2019-05-20T09:26:07.600Z,79.20
2019-05-20T09:29:12.052Z,77.60
2019-05-20T09:32:17.036Z,77.29
2019-05-20T09:35:21.622Z,79.04
2019-05-20T09:38:26.442Z,78.99
2019-05-20T09:41:30.908Z,79.40
2019-05-20T09:44:35.342Z,79.96
2019-05-20T09:47:39.825Z,78.93
2019-05-20T09:50:44.757Z,80.38
2019-05-20T09:53:49.204Z,78.76
2019-05-20T09:56:53.911Z,79.51
2019-05-20T09:59:58.524Z,79.54
2019-05-20T10:03:03.318Z,80.09
2019-05-20T10:06:07.817Z,79.63
2019-05-20T10:09:12.259Z,80.10
2019-05-20T10:12:16.714Z,80.02
2019-05-20T10:15:21.766Z,80.07
2019-05-20T10:18:36.855Z,79.03
2019-05-20T10:21:32.395Z,79.20
2019-05-20T10:24:36.860Z,79.84
2019-05-20T10:27:41.381Z,77.78
2019-05-20T10:30:45.826Z,77.03
2019-05-20T10:33:50.600Z,78.01
2019-05-20T10:36:55.102Z,77.19
2019-05-20T10:39:59.830Z,77.57
2019-05-20T10:43:04.769Z,78.33
2019-05-20T10:46:09.391Z,77.80
2019-05-20T10:49:14.132Z,78.12
2019-05-20T10:52:18.984Z,79.17
2019-05-20T10:55:23.710Z,79.80
2019-05-20T10:58:28.725Z,78.27
2019-05-20T11:01:33.193Z,77.46
2019-05-20T11:04:37.890Z,77.50
2019-05-20T11:07:42.388Z,77.56
2019-05-20T11:10:46.809Z,76.94
2019-05-20T11:13:51.261Z,77.67
2019-05-20T11:16:56.001Z,77.73
2019-05-20T11:20:00.718Z,77.99
2019-05-20T11:23:05.168Z,77.55
2019-05-20T11:26:09.875Z,78.05
2019-05-20T11:29:14.707Z,77.52
2019-05-20T11:32:19.434Z,77.31
2019-05-20T11:35:23.881Z,77.13
2019-05-20T11:38:28.325Z,77.69
2019-05-20T11:41:52.646Z,77.18
2019-05-20T11:44:39.367Z,77.93
2019-05-20T11:47:43.850Z,77.99
2019-05-20T11:50:48.545Z,79.27
2019-05-20T11:53:53.268Z,78.60
2019-05-20T11:56:58.002Z,78.83
2019-05-20T12:00:02.620Z,80.08
2019-05-20T12:03:07.074Z,80.52
2019-05-20T12:06:11.635Z,80.77
2019-05-20T12:09:16.406Z,79.56
2019-05-20T12:12:20.851Z,80.12
2019-05-20T12:15:25.679Z,79.85
2019-05-20T12:18:30.137Z,80.19
2019-05-20T12:21:34.582Z,79.20
2019-05-20T12:24:39.354Z,79.66
2019-05-20T12:27:44.076Z,79.52
2019-05-20T12:30:48.531Z,80.50
2019-05-20T12:33:52.978Z,80.07
2019-05-20T12:36:57.423Z,79.29
2019-05-20T12:40:07.169Z,78.74
2019-05-20T12:43:08.051Z,80.03
2019-05-20T12:46:12.765Z,79.98
2019-05-20T12:49:17.593Z,79.56
2019-05-20T12:52:22.221Z,80.06
2019-05-20T12:55:26.674Z,79.97
2019-05-20T12:58:31.231Z,80.53
2019-05-20T13:01:36.017Z,80.77
2019-05-20T13:04:40.737Z,80.47
2019-05-20T13:07:45.693Z,80.22
2019-05-20T13:10:50.408Z,79.92
2019-05-20T13:13:55.138Z,80.83
2019-05-20T13:16:59.872Z,79.16
2019-05-20T13:20:05.014Z,79.91
2019-05-20T13:23:11.490Z,78.66
2019-05-20T13:26:15.650Z,79.60
2019-05-20T13:29:20.100Z,79.29
2019-05-20T13:32:24.855Z,80.32
2019-05-20T13:35:29.321Z,80.84
2019-05-20T13:38:33.756Z,80.73
2019-05-20T13:41:38.205Z,80.60
2019-05-20T13:44:42.959Z,79.60
2019-05-20T13:47:47.413Z,77.85
2019-05-20T13:50:51.865Z,78.31
2019-05-20T13:53:56.642Z,79.00
2019-05-20T13:57:01.372Z,78.57
2019-05-20T14:00:10.170Z,79.58
2019-05-20T14:03:14.926Z,79.32
2019-05-20T14:06:19.674Z,79.11
2019-05-20T14:09:24.101Z,79.72
2019-05-20T14:12:28.812Z,78.23
2019-05-20T14:15:33.619Z,79.07
2019-05-20T14:18:38.379Z,78.44
2019-05-20T14:21:43.105Z,79.65
2019-05-20T14:24:47.577Z,79.58
2019-05-20T14:27:52.367Z,79.47
2019-05-20T14:30:56.838Z,79.66
2019-05-20T14:34:01.370Z,78.78
2019-05-20T14:37:05.897Z,80.19
2019-05-20T14:40:10.686Z,79.77
2019-05-20T14:43:15.125Z,80.01
2019-05-20T14:46:20.034Z,79.42
2019-05-20T14:49:24.480Z,79.60
2019-05-20T14:52:29.187Z,80.33
2019-05-20T14:55:42.280Z,80.38
2019-05-20T14:58:39.837Z,79.60
2019-05-20T15:01:44.317Z,80.18
2019-05-20T15:04:48.761Z,80.53
2019-05-20T15:07:53.560Z,80.06
2019-05-20T15:10:58.287Z,79.23
2019-05-20T15:14:03.017Z,79.59
2019-05-20T15:17:07.462Z,80.04
2019-05-20T15:20:12.680Z,80.26
2019-05-20T15:23:17.126Z,80.59
2019-05-20T15:26:21.581Z,80.68
2019-05-20T15:29:28.374Z,80.41
2019-05-20T15:32:32.544Z,80.96
2019-05-20T15:35:37.280Z,81.08
2019-05-20T15:38:41.994Z,79.89
2019-05-20T15:41:46.466Z,80.53
2019-05-20T15:44:50.954Z,81.48
2019-05-20T15:47:55.448Z,81.34
2019-05-20T15:50:59.893Z,81.24
2019-05-20T15:54:04.400Z,82.08
2019-05-20T15:57:08.855Z,82.63
2019-05-20T16:00:15.130Z,82.36
2019-05-20T16:03:19.586Z,82.01
2019-05-20T16:06:24.032Z,82.33
2019-05-20T16:09:28.788Z,81.93
2019-05-20T16:12:34.422Z,82.27
2019-05-20T16:15:39.274Z,82.46
2019-05-20T16:18:44.015Z,83.13
2019-05-20T16:21:48.486Z,82.61
2019-05-20T16:24:53.358Z,82.67
2019-05-20T16:27:57.981Z,83.50
2019-05-20T16:31:02.497Z,83.69
2019-05-20T16:34:07.247Z,83.27
2019-05-20T16:37:11.877Z,81.80
2019-05-20T16:40:16.596Z,81.06
2019-05-20T16:43:21.219Z,80.43
2019-05-20T16:46:25.963Z,80.99
2019-05-20T16:49:30.416Z,81.00
2019-05-20T16:52:34.856Z,80.37
2019-05-20T16:55:39.652Z,80.91
2019-05-20T16:58:44.104Z,80.66
2019-05-20T17:01:48.559Z,81.37
2019-05-20T17:04:53.003Z,81.42
2019-05-20T17:07:57.456Z,81.92
2019-05-20T17:11:02.310Z,81.71
2019-05-20T17:14:10.398Z,82.32
2019-05-20T17:17:13.036Z,81.30
2019-05-20T17:20:17.726Z,82.00
2019-05-20T17:23:22.175Z,82.84
2019-05-20T17:26:26.621Z,82.34
2019-05-20T17:29:31.532Z,82.20
2019-05-20T17:32:35.949Z,81.58
2019-05-20T17:35:40.569Z,82.45
2019-05-20T17:38:45.019Z,82.72
2019-05-20T17:41:49.470Z,83.08
2019-05-20T17:44:53.923Z,82.81
2019-05-20T17:47:58.363Z,82.49
2019-05-20T17:51:02.874Z,83.57
2019-05-20T17:54:07.565Z,82.99
2019-05-20T17:57:12.010Z,83.13
2019-05-20T18:00:20.951Z,83.78
2019-05-20T18:03:25.814Z,83.80
2019-05-20T18:06:30.242Z,84.85
2019-05-20T18:09:36.682Z,84.33
2019-05-20T18:12:41.106Z,84.24
2019-05-20T18:15:45.554Z,84.40
2019-05-20T18:18:50.014Z,84.43
2019-05-20T18:21:54.767Z,83.74
2019-05-20T18:24:59.224Z,83.84
2019-05-20T18:28:03.679Z,84.47
2019-05-20T18:31:08.447Z,84.04
2019-05-20T18:34:13.181Z,83.96
2019-05-20T18:37:17.626Z,84.68
2019-05-20T18:40:22.724Z,85.26
2019-05-20T18:43:27.492Z,85.57
2019-05-20T18:46:31.940Z,84.30
2019-05-20T18:49:36.399Z,83.39
2019-05-20T18:52:40.845Z,83.76
2019-05-20T18:55:45.581Z,83.74
2019-05-20T18:58:50.311Z,83.72
2019-05-20T19:02:04.714Z,83.58
2019-05-20T19:05:01.513Z,83.50
2019-05-20T19:08:06.031Z,83.88
2019-05-20T19:11:10.971Z,83.75
2019-05-20T19:14:15.706Z,83.87
2019-05-20T19:17:20.234Z,84.13
2019-05-20T19:20:24.980Z,83.34
2019-05-20T19:23:29.803Z,83.31
2019-05-20T19:26:34.588Z,84.23
2019-05-20T19:29:39.269Z,83.89
2019-05-20T19:32:43.705Z,83.96
2019-05-20T19:35:48.228Z,83.37
2019-05-20T19:38:52.677Z,83.50
2019-05-20T19:41:57.139Z,83.19
2019-05-20T19:45:01.587Z,82.78
2019-05-20T19:48:06.030Z,82.98
2019-05-20T19:51:10.479Z,82.96
2019-05-20T19:54:15.257Z,83.18
2019-05-20T19:57:19.712Z,83.01
2019-05-20T20:00:24.616Z,82.55
2019-05-20T20:03:29.073Z,82.65
2019-05-20T20:06:33.526Z,82.93
2019-05-20T20:09:38.055Z,83.77
2019-05-20T20:12:42.821Z,83.33
2019-05-20T20:15:47.267Z,83.66
2019-05-20T20:18:51.978Z,84.25
2019-05-20T20:21:56.440Z,84.21
2019-05-20T20:25:00.866Z,83.84
2019-05-20T20:28:05.966Z,84.46
2019-05-20T20:31:11.087Z,83.84
2019-05-20T20:34:15.650Z,84.17
2019-05-20T20:37:20.361Z,84.55
2019-05-20T20:40:24.812Z,84.23
2019-05-20T20:43:32.106Z,84.10
2019-05-20T20:46:35.786Z,84.57
2019-05-20T20:49:40.226Z,84.14
2019-05-20T20:52:44.988Z,83.41
2019-05-20T20:55:49.769Z,83.84
2019-05-20T20:58:54.209Z,83.25
2019-05-20T21:01:59.362Z,83.80
2019-05-20T21:05:05.214Z,84.31
2019-05-20T21:08:09.657Z,83.67
2019-05-20T21:11:14.447Z,83.79
2019-05-20T21:14:19.175Z,84.36
2019-05-20T21:17:23.919Z,84.16
2019-05-20T21:20:28.642Z,84.59
2019-05-20T21:23:33.097Z,84.27
2019-05-20T21:26:37.901Z,84.38
2019-05-20T21:29:42.522Z,84.16
2019-05-20T21:32:47.271Z,84.40
2019-05-20T21:35:51.705Z,84.34
2019-05-20T21:38:56.511Z,85.02
2019-05-20T21:42:01.245Z,85.06
2019-05-20T21:45:07.916Z,84.94
2019-05-20T21:48:12.369Z,85.11
2019-05-20T21:51:16.835Z,85.56
2019-05-20T21:54:21.271Z,85.26
2019-05-20T21:57:26.025Z,85.42
2019-05-20T22:00:34.788Z,85.17
2019-05-20T22:03:39.307Z,84.33
2019-05-20T22:06:44.113Z,85.45
2019-05-20T22:09:48.554Z,85.22
2019-05-20T22:12:53.006Z,84.79
2019-05-20T22:15:57.758Z,85.46
2019-05-20T22:19:08.777Z,85.92
2019-05-20T22:22:12.996Z,85.21
2019-05-20T22:25:17.505Z,85.71
2019-05-20T22:28:21.959Z,85.10
2019-05-20T22:31:26.871Z,85.44
2019-05-20T22:34:31.331Z,85.41
2019-05-20T22:37:36.679Z,85.67
2019-05-20T22:40:41.378Z,85.43
2019-05-20T22:43:45.832Z,85.94
2019-05-20T22:46:50.276Z,86.00
2019-05-20T22:49:54.733Z,85.69
2019-05-20T22:52:59.183Z,85.26
2019-05-20T22:56:03.627Z,85.09
2019-05-20T22:59:08.083Z,85.68
2019-05-20T23:02:12.534Z,85.32
2019-05-20T23:05:17.271Z,85.59
2019-05-20T23:08:22.003Z,85.52
2019-05-20T23:11:26.727Z,85.32
2019-05-20T23:14:31.175Z,85.23
2019-05-20T23:17:35.882Z,85.33
2019-05-20T23:20:40.325Z,85.56
2019-05-20T23:23:44.784Z,85.33
2019-05-20T23:26:49.560Z,85.16
2019-05-20T23:29:54.015Z,85.24
2019-05-20T23:32:58.465Z,85.30
2019-05-20T23:36:03.485Z,85.16
2019-05-20T23:39:07.933Z,85.40
2019-05-20T23:42:12.382Z,85.40
2019-05-20T23:45:16.895Z,85.65
2019-05-20T23:48:21.353Z,85.97
2019-05-20T23:51:26.081Z,85.63
2019-05-20T23:54:30.536Z,85.84
2019-05-20T23:57:34.981Z,85.63
